sensor_id;sensor_type;location;lat;lon;timestamp;P1;durP1;ratioP1;P2;durP2;ratioP2
11121;SDS011;5615;49.304;10.576;2023-02-26T00:01:51;5.97;;;2.43;;
11121;SDS011;5615;49.304;10.576;2023-02-26T00:04:21;4.23;;;2.67;;
11121;SDS011;5615;49.304;10.576;2023-02-26T00:06:47;3.83;;;2.40;;
11121;SDS011;5615;49.304;10.576;2023-02-26T00:09:21;2.90;;;2.40;;
11121;SDS011;5615;49.304;10.576;2023-02-26T00:11:48;5.57;;;2.93;;
11121;SDS011;5615;49.304;10.576;2023-02-26T00:14:15;4.47;;;2.63;;
11121;SDS011;5615;49.304;10.576;2023-02-26T00:16:42;5.83;;;2.73;;
11121;SDS011;5615;49.304;10.576;2023-02-26T00:19:12;8.43;;;2.97;;
11121;SDS011;5615;49.304;10.576;2023-02-26T00:21:40;4.87;;;2.37;;
11121;SDS011;5615;49.304;10.576;2023-02-26T00:24:07;4.47;;;2.90;;
11121;SDS011;5615;49.304;10.576;2023-02-26T00:26:34;6.53;;;2.40;;
11121;SDS011;5615;49.304;10.576;2023-02-26T00:29:01;5.57;;;3.50;;
11121;SDS011;5615;49.304;10.576;2023-02-26T00:31:29;5.50;;;2.77;;
11121;SDS011;5615;49.304;10.576;2023-02-26T00:33:56;6.83;;;3.27;;
11121;SDS011;5615;49.304;10.576;2023-02-26T00:36:24;7.43;;;2.60;;
11121;SDS011;5615;49.304;10.576;2023-02-26T00:39:04;3.77;;;2.80;;
11121;SDS011;5615;49.304;10.576;2023-02-26T00:41:34;5.10;;;2.90;;
11121;SDS011;5615;49.304;10.576;2023-02-26T00:44:02;7.97;;;3.00;;
11121;SDS011;5615;49.304;10.576;2023-02-26T00:46:33;6.47;;;2.70;;
11121;SDS011;5615;49.304;10.576;2023-02-26T00:49:09;3.90;;;2.80;;
11121;SDS011;5615;49.304;10.576;2023-02-26T00:51:44;3.30;;;2.47;;
11121;SDS011;5615;49.304;10.576;2023-02-26T00:54:17;3.53;;;2.60;;
11121;SDS011;5615;49.304;10.576;2023-02-26T00:56:46;6.97;;;3.07;;
11121;SDS011;5615;49.304;10.576;2023-02-26T00:59:14;4.57;;;2.53;;
11121;SDS011;5615;49.304;10.576;2023-02-26T01:01:41;9.20;;;3.20;;
11121;SDS011;5615;49.304;10.576;2023-02-26T01:04:08;4.90;;;2.70;;
11121;SDS011;5615;49.304;10.576;2023-02-26T01:06:37;7.87;;;3.03;;
11121;SDS011;5615;49.304;10.576;2023-02-26T01:09:09;6.03;;;2.83;;
11121;SDS011;5615;49.304;10.576;2023-02-26T01:11:43;5.13;;;2.80;;
11121;SDS011;5615;49.304;10.576;2023-02-26T01:14:10;8.37;;;2.83;;
11121;SDS011;5615;49.304;10.576;2023-02-26T01:16:38;4.13;;;2.90;;
11121;SDS011;5615;49.304;10.576;2023-02-26T01:19:13;4.77;;;3.00;;
11121;SDS011;5615;49.304;10.576;2023-02-26T01:21:50;4.23;;;2.80;;
11121;SDS011;5615;49.304;10.576;2023-02-26T01:24:20;5.47;;;2.90;;
11121;SDS011;5615;49.304;10.576;2023-02-26T01:26:51;5.77;;;2.80;;
11121;SDS011;5615;49.304;10.576;2023-02-26T01:29:18;10.33;;;3.27;;
11121;SDS011;5615;49.304;10.576;2023-02-26T01:31:47;5.93;;;2.60;;
11121;SDS011;5615;49.304;10.576;2023-02-26T01:34:18;7.27;;;2.80;;
11121;SDS011;5615;49.304;10.576;2023-02-26T01:36:49;3.23;;;1.60;;
11121;SDS011;5615;49.304;10.576;2023-02-26T01:39:22;1.90;;;1.60;;
11121;SDS011;5615;49.304;10.576;2023-02-26T01:41:54;5.53;;;2.10;;
11121;SDS011;5615;49.304;10.576;2023-02-26T01:44:26;4.63;;;1.93;;
11121;SDS011;5615;49.304;10.576;2023-02-26T01:47:02;5.57;;;2.10;;
11121;SDS011;5615;49.304;10.576;2023-02-26T01:49:35;3.50;;;1.80;;
11121;SDS011;5615;49.304;10.576;2023-02-26T01:52:02;2.30;;;1.80;;
11121;SDS011;5615;49.304;10.576;2023-02-26T01:54:31;4.83;;;1.73;;
11121;SDS011;5615;49.304;10.576;2023-02-26T01:57:01;3.93;;;1.83;;
11121;SDS011;5615;49.304;10.576;2023-02-26T01:59:30;3.07;;;1.57;;
11121;SDS011;5615;49.304;10.576;2023-02-26T02:01:59;2.17;;;1.40;;
11121;SDS011;5615;49.304;10.576;2023-02-26T02:04:28;4.37;;;1.23;;
11121;SDS011;5615;49.304;10.576;2023-02-26T02:06:57;4.80;;;1.87;;
11121;SDS011;5615;49.304;10.576;2023-02-26T02:09:24;6.13;;;1.70;;
11121;SDS011;5615;49.304;10.576;2023-02-26T02:11:55;5.70;;;1.70;;
11121;SDS011;5615;49.304;10.576;2023-02-26T02:14:46;2.63;;;1.30;;
11121;SDS011;5615;49.304;10.576;2023-02-26T02:17:23;2.47;;;1.57;;
11121;SDS011;5615;49.304;10.576;2023-02-26T02:20:06;4.50;;;1.53;;
11121;SDS011;5615;49.304;10.576;2023-02-26T02:22:49;3.57;;;1.50;;
11121;SDS011;5615;49.304;10.576;2023-02-26T02:25:28;1.70;;;1.60;;
11121;SDS011;5615;49.304;10.576;2023-02-26T02:28:30;3.20;;;1.63;;
11121;SDS011;5615;49.304;10.576;2023-02-26T02:31:06;3.80;;;1.90;;
11121;SDS011;5615;49.304;10.576;2023-02-26T02:33:38;3.43;;;1.50;;
11121;SDS011;5615;49.304;10.576;2023-02-26T02:36:11;4.43;;;1.87;;
11121;SDS011;5615;49.304;10.576;2023-02-26T02:38:43;2.80;;;1.97;;
11121;SDS011;5615;49.304;10.576;2023-02-26T02:41:14;4.07;;;1.50;;
11121;SDS011;5615;49.304;10.576;2023-02-26T02:43:45;2.37;;;1.30;;
11121;SDS011;5615;49.304;10.576;2023-02-26T02:46:16;2.17;;;1.50;;
11121;SDS011;5615;49.304;10.576;2023-02-26T02:48:47;2.37;;;1.50;;
11121;SDS011;5615;49.304;10.576;2023-02-26T02:51:18;3.23;;;1.40;;
11121;SDS011;5615;49.304;10.576;2023-02-26T02:53:49;4.60;;;1.40;;
11121;SDS011;5615;49.304;10.576;2023-02-26T02:56:21;5.73;;;1.50;;
11121;SDS011;5615;49.304;10.576;2023-02-26T02:58:51;2.77;;;1.60;;
11121;SDS011;5615;49.304;10.576;2023-02-26T03:01:23;3.83;;;1.60;;
11121;SDS011;5615;49.304;10.576;2023-02-26T03:03:54;3.97;;;1.63;;
11121;SDS011;5615;49.304;10.576;2023-02-26T03:06:22;3.73;;;1.50;;
11121;SDS011;5615;49.304;10.576;2023-02-26T03:08:49;4.17;;;1.70;;
11121;SDS011;5615;49.304;10.576;2023-02-26T03:11:17;5.70;;;1.70;;
11121;SDS011;5615;49.304;10.576;2023-02-26T03:13:44;3.87;;;1.70;;
11121;SDS011;5615;49.304;10.576;2023-02-26T03:16:15;6.13;;;1.50;;
11121;SDS011;5615;49.304;10.576;2023-02-26T03:18:56;1.97;;;1.60;;
11121;SDS011;5615;49.304;10.576;2023-02-26T03:21:30;1.77;;;1.50;;
11121;SDS011;5615;49.304;10.576;2023-02-26T03:24:05;4.40;;;1.93;;
11121;SDS011;5615;49.304;10.576;2023-02-26T03:26:41;4.90;;;1.80;;
11121;SDS011;5615;49.304;10.576;2023-02-26T03:29:13;3.60;;;1.63;;
11121;SDS011;5615;49.304;10.576;2023-02-26T03:31:45;7.57;;;1.70;;
11121;SDS011;5615;49.304;10.576;2023-02-26T03:34:20;4.40;;;1.80;;
11121;SDS011;5615;49.304;10.576;2023-02-26T03:36:52;3.83;;;1.57;;
11121;SDS011;5615;49.304;10.576;2023-02-26T03:39:24;3.50;;;1.60;;
11121;SDS011;5615;49.304;10.576;2023-02-26T03:41:55;3.73;;;1.67;;
11121;SDS011;5615;49.304;10.576;2023-02-26T03:44:28;6.00;;;1.53;;
11121;SDS011;5615;49.304;10.576;2023-02-26T03:47:00;4.47;;;1.87;;
11121;SDS011;5615;49.304;10.576;2023-02-26T03:49:31;2.30;;;1.40;;
11121;SDS011;5615;49.304;10.576;2023-02-26T03:52:01;5.30;;;1.50;;
11121;SDS011;5615;49.304;10.576;2023-02-26T03:54:30;9.73;;;1.80;;
11121;SDS011;5615;49.304;10.576;2023-02-26T03:57:00;7.00;;;1.90;;
11121;SDS011;5615;49.304;10.576;2023-02-26T03:59:27;4.33;;;1.77;;
11121;SDS011;5615;49.304;10.576;2023-02-26T04:01:55;4.00;;;1.67;;
11121;SDS011;5615;49.304;10.576;2023-02-26T04:04:27;3.67;;;2.00;;
11121;SDS011;5615;49.304;10.576;2023-02-26T04:07:06;2.83;;;1.83;;
11121;SDS011;5615;49.304;10.576;2023-02-26T04:09:33;2.17;;;1.60;;
11121;SDS011;5615;49.304;10.576;2023-02-26T04:11:59;5.17;;;2.60;;
11121;SDS011;5615;49.304;10.576;2023-02-26T04:14:26;4.57;;;1.93;;
11121;SDS011;5615;49.304;10.576;2023-02-26T04:16:53;2.97;;;1.70;;
11121;SDS011;5615;49.304;10.576;2023-02-26T04:19:19;5.17;;;1.90;;
11121;SDS011;5615;49.304;10.576;2023-02-26T04:21:47;5.70;;;1.80;;
11121;SDS011;5615;49.304;10.576;2023-02-26T04:24:14;6.33;;;2.00;;
11121;SDS011;5615;49.304;10.576;2023-02-26T04:26:40;5.30;;;2.30;;
11121;SDS011;5615;49.304;10.576;2023-02-26T04:29:07;5.17;;;2.10;;
11121;SDS011;5615;49.304;10.576;2023-02-26T04:31:34;4.33;;;2.00;;
11121;SDS011;5615;49.304;10.576;2023-02-26T04:34:00;4.23;;;2.23;;
11121;SDS011;5615;49.304;10.576;2023-02-26T04:36:27;4.93;;;2.27;;
11121;SDS011;5615;49.304;10.576;2023-02-26T04:38:56;7.60;;;2.07;;
11121;SDS011;5615;49.304;10.576;2023-02-26T04:41:22;5.23;;;2.40;;
11121;SDS011;5615;49.304;10.576;2023-02-26T04:43:49;5.53;;;2.17;;
11121;SDS011;5615;49.304;10.576;2023-02-26T04:46:16;6.57;;;2.77;;
11121;SDS011;5615;49.304;10.576;2023-02-26T04:48:42;3.70;;;2.10;;
11121;SDS011;5615;49.304;10.576;2023-02-26T04:51:09;3.03;;;2.33;;
11121;SDS011;5615;49.304;10.576;2023-02-26T04:53:35;4.83;;;2.07;;
11121;SDS011;5615;49.304;10.576;2023-02-26T04:56:04;6.27;;;2.70;;
11121;SDS011;5615;49.304;10.576;2023-02-26T04:58:31;4.40;;;2.23;;
11121;SDS011;5615;49.304;10.576;2023-02-26T05:00:58;8.67;;;3.23;;
11121;SDS011;5615;49.304;10.576;2023-02-26T05:03:25;7.53;;;3.00;;
11121;SDS011;5615;49.304;10.576;2023-02-26T05:05:51;4.77;;;2.13;;
11121;SDS011;5615;49.304;10.576;2023-02-26T05:08:18;6.50;;;2.57;;
11121;SDS011;5615;49.304;10.576;2023-02-26T05:10:44;8.03;;;2.63;;
11121;SDS011;5615;49.304;10.576;2023-02-26T05:13:12;7.73;;;3.20;;
11121;SDS011;5615;49.304;10.576;2023-02-26T05:15:39;3.80;;;2.57;;
11121;SDS011;5615;49.304;10.576;2023-02-26T05:18:06;4.47;;;2.43;;
11121;SDS011;5615;49.304;10.576;2023-02-26T05:20:32;4.63;;;2.77;;
11121;SDS011;5615;49.304;10.576;2023-02-26T05:22:59;4.97;;;2.60;;
11121;SDS011;5615;49.304;10.576;2023-02-26T05:25:26;3.60;;;2.50;;
11121;SDS011;5615;49.304;10.576;2023-02-26T05:27:52;5.13;;;2.53;;
11121;SDS011;5615;49.304;10.576;2023-02-26T05:30:21;6.57;;;2.70;;
11121;SDS011;5615;49.304;10.576;2023-02-26T05:32:47;6.00;;;2.97;;
11121;SDS011;5615;49.304;10.576;2023-02-26T05:35:14;4.73;;;2.60;;
11121;SDS011;5615;49.304;10.576;2023-02-26T05:37:41;4.10;;;2.50;;
11121;SDS011;5615;49.304;10.576;2023-02-26T05:40:08;3.70;;;2.20;;
11121;SDS011;5615;49.304;10.576;2023-02-26T05:42:35;3.63;;;2.10;;
11121;SDS011;5615;49.304;10.576;2023-02-26T05:45:02;7.43;;;2.67;;
11121;SDS011;5615;49.304;10.576;2023-02-26T05:47:31;6.90;;;2.43;;
11121;SDS011;5615;49.304;10.576;2023-02-26T05:49:58;7.30;;;2.63;;
11121;SDS011;5615;49.304;10.576;2023-02-26T05:52:24;6.07;;;2.60;;
11121;SDS011;5615;49.304;10.576;2023-02-26T05:54:51;3.20;;;2.10;;
11121;SDS011;5615;49.304;10.576;2023-02-26T05:57:18;5.63;;;2.50;;
11121;SDS011;5615;49.304;10.576;2023-02-26T05:59:44;4.93;;;2.43;;
11121;SDS011;5615;49.304;10.576;2023-02-26T06:02:11;4.63;;;3.33;;
11121;SDS011;5615;49.304;10.576;2023-02-26T06:04:39;7.20;;;2.43;;
11121;SDS011;5615;49.304;10.576;2023-02-26T06:07:05;5.77;;;2.60;;
11121;SDS011;5615;49.304;10.576;2023-02-26T06:09:32;5.07;;;2.63;;
11121;SDS011;5615;49.304;10.576;2023-02-26T06:11:58;4.30;;;2.47;;
11121;SDS011;5615;49.304;10.576;2023-02-26T06:14:25;5.90;;;2.63;;
11121;SDS011;5615;49.304;10.576;2023-02-26T06:16:52;4.07;;;2.30;;
11121;SDS011;5615;49.304;10.576;2023-02-26T06:19:18;3.13;;;2.43;;
11121;SDS011;5615;49.304;10.576;2023-02-26T06:21:47;4.23;;;2.17;;
11121;SDS011;5615;49.304;10.576;2023-02-26T06:24:13;4.43;;;2.40;;
11121;SDS011;5615;49.304;10.576;2023-02-26T06:26:40;7.50;;;2.80;;
11121;SDS011;5615;49.304;10.576;2023-02-26T06:29:07;3.90;;;2.50;;
11121;SDS011;5615;49.304;10.576;2023-02-26T06:31:33;7.00;;;2.40;;
11121;SDS011;5615;49.304;10.576;2023-02-26T06:34:00;4.60;;;2.33;;
11121;SDS011;5615;49.304;10.576;2023-02-26T06:36:26;4.87;;;2.30;;
11121;SDS011;5615;49.304;10.576;2023-02-26T06:38:54;4.00;;;2.43;;
11121;SDS011;5615;49.304;10.576;2023-02-26T06:41:21;6.23;;;2.77;;
11121;SDS011;5615;49.304;10.576;2023-02-26T06:43:48;3.17;;;2.40;;
11121;SDS011;5615;49.304;10.576;2023-02-26T06:46:14;6.30;;;3.53;;
11121;SDS011;5615;49.304;10.576;2023-02-26T06:48:41;4.53;;;2.70;;
11121;SDS011;5615;49.304;10.576;2023-02-26T06:51:07;6.57;;;2.77;;
11121;SDS011;5615;49.304;10.576;2023-02-26T06:53:34;6.23;;;2.60;;
11121;SDS011;5615;49.304;10.576;2023-02-26T06:56:02;3.90;;;2.80;;
11121;SDS011;5615;49.304;10.576;2023-02-26T06:58:29;5.37;;;2.70;;
11121;SDS011;5615;49.304;10.576;2023-02-26T07:00:56;3.20;;;2.30;;
11121;SDS011;5615;49.304;10.576;2023-02-26T07:03:22;5.63;;;2.83;;
11121;SDS011;5615;49.304;10.576;2023-02-26T07:05:49;5.50;;;3.03;;
11121;SDS011;5615;49.304;10.576;2023-02-26T07:08:16;7.23;;;3.07;;
11121;SDS011;5615;49.304;10.576;2023-02-26T07:10:42;5.07;;;3.23;;
11121;SDS011;5615;49.304;10.576;2023-02-26T07:13:12;6.97;;;3.40;;
11121;SDS011;5615;49.304;10.576;2023-02-26T07:15:39;8.57;;;2.80;;
11121;SDS011;5615;49.304;10.576;2023-02-26T07:18:05;3.93;;;2.67;;
11121;SDS011;5615;49.304;10.576;2023-02-26T07:20:32;3.90;;;2.87;;
11121;SDS011;5615;49.304;10.576;2023-02-26T07:22:59;7.33;;;2.77;;
11121;SDS011;5615;49.304;10.576;2023-02-26T07:25:26;3.30;;;2.10;;
11121;SDS011;5615;49.304;10.576;2023-02-26T07:27:53;6.17;;;2.40;;
11121;SDS011;5615;49.304;10.576;2023-02-26T07:30:21;3.03;;;2.10;;
11121;SDS011;5615;49.304;10.576;2023-02-26T07:32:48;5.77;;;2.67;;
11121;SDS011;5615;49.304;10.576;2023-02-26T07:35:14;4.17;;;2.90;;
11121;SDS011;5615;49.304;10.576;2023-02-26T07:37:41;3.73;;;2.50;;
11121;SDS011;5615;49.304;10.576;2023-02-26T07:40:08;3.33;;;2.43;;
11121;SDS011;5615;49.304;10.576;2023-02-26T07:42:37;3.83;;;2.30;;
11121;SDS011;5615;49.304;10.576;2023-02-26T07:45:04;7.80;;;2.90;;
11121;SDS011;5615;49.304;10.576;2023-02-26T07:47:33;9.13;;;4.33;;
11121;SDS011;5615;49.304;10.576;2023-02-26T07:50:00;4.33;;;3.33;;
11121;SDS011;5615;49.304;10.576;2023-02-26T07:52:27;7.27;;;4.20;;
11121;SDS011;5615;49.304;10.576;2023-02-26T07:54:54;4.70;;;2.60;;
11121;SDS011;5615;49.304;10.576;2023-02-26T07:57:20;4.20;;;3.00;;
11121;SDS011;5615;49.304;10.576;2023-02-26T07:59:47;5.00;;;2.40;;
11121;SDS011;5615;49.304;10.576;2023-02-26T08:02:13;4.80;;;3.00;;
11121;SDS011;5615;49.304;10.576;2023-02-26T08:04:42;4.57;;;2.27;;
11121;SDS011;5615;49.304;10.576;2023-02-26T08:07:08;3.57;;;2.60;;
11121;SDS011;5615;49.304;10.576;2023-02-26T08:09:35;4.83;;;3.50;;
11121;SDS011;5615;49.304;10.576;2023-02-26T08:12:02;3.77;;;2.77;;
11121;SDS011;5615;49.304;10.576;2023-02-26T08:14:28;3.27;;;2.00;;
11121;SDS011;5615;49.304;10.576;2023-02-26T08:16:55;7.87;;;2.93;;
11121;SDS011;5615;49.304;10.576;2023-02-26T08:19:22;5.13;;;2.23;;
11121;SDS011;5615;49.304;10.576;2023-02-26T08:21:50;3.87;;;2.70;;
11121;SDS011;5615;49.304;10.576;2023-02-26T08:24:19;4.83;;;2.63;;
11121;SDS011;5615;49.304;10.576;2023-02-26T08:26:45;3.10;;;2.17;;
11121;SDS011;5615;49.304;10.576;2023-02-26T08:29:12;4.77;;;2.47;;
11121;SDS011;5615;49.304;10.576;2023-02-26T08:31:39;3.00;;;1.93;;
11121;SDS011;5615;49.304;10.576;2023-02-26T08:34:05;2.27;;;2.07;;
11121;SDS011;5615;49.304;10.576;2023-02-26T08:36:32;4.33;;;2.50;;
11121;SDS011;5615;49.304;10.576;2023-02-26T08:39:00;3.83;;;2.33;;
11121;SDS011;5615;49.304;10.576;2023-02-26T08:41:27;4.10;;;1.90;;
11121;SDS011;5615;49.304;10.576;2023-02-26T08:43:56;4.40;;;1.90;;
11121;SDS011;5615;49.304;10.576;2023-02-26T08:46:22;3.03;;;1.90;;
11121;SDS011;5615;49.304;10.576;2023-02-26T08:48:49;2.57;;;2.10;;
11121;SDS011;5615;49.304;10.576;2023-02-26T08:51:17;2.80;;;2.10;;
11121;SDS011;5615;49.304;10.576;2023-02-26T08:53:43;2.30;;;2.10;;
11121;SDS011;5615;49.304;10.576;2023-02-26T08:56:12;2.37;;;1.97;;
11121;SDS011;5615;49.304;10.576;2023-02-26T08:58:39;2.20;;;1.90;;
11121;SDS011;5615;49.304;10.576;2023-02-26T09:01:05;3.20;;;2.07;;
11121;SDS011;5615;49.304;10.576;2023-02-26T09:03:32;4.87;;;2.30;;
11121;SDS011;5615;49.304;10.576;2023-02-26T09:05:59;3.43;;;2.50;;
11121;SDS011;5615;49.304;10.576;2023-02-26T09:08:26;2.47;;;1.90;;
11121;SDS011;5615;49.304;10.576;2023-02-26T09:10:52;3.53;;;2.40;;
11121;SDS011;5615;49.304;10.576;2023-02-26T09:13:20;2.73;;;2.37;;
11121;SDS011;5615;49.304;10.576;2023-02-26T09:15:47;3.33;;;2.37;;
11121;SDS011;5615;49.304;10.576;2023-02-26T09:18:14;4.87;;;2.53;;
11121;SDS011;5615;49.304;10.576;2023-02-26T09:20:41;3.00;;;1.90;;
11121;SDS011;5615;49.304;10.576;2023-02-26T09:23:08;4.67;;;2.37;;
11121;SDS011;5615;49.304;10.576;2023-02-26T09:25:35;3.40;;;2.07;;
11121;SDS011;5615;49.304;10.576;2023-02-26T09:28:02;2.33;;;2.07;;
11121;SDS011;5615;49.304;10.576;2023-02-26T09:30:30;2.50;;;2.30;;
11121;SDS011;5615;49.304;10.576;2023-02-26T09:32:57;2.83;;;2.30;;
11121;SDS011;5615;49.304;10.576;2023-02-26T09:35:23;2.67;;;2.17;;
11121;SDS011;5615;49.304;10.576;2023-02-26T09:37:50;2.30;;;2.10;;
11121;SDS011;5615;49.304;10.576;2023-02-26T09:40:20;3.83;;;2.20;;
11121;SDS011;5615;49.304;10.576;2023-02-26T09:42:59;2.57;;;2.30;;
11121;SDS011;5615;49.304;10.576;2023-02-26T09:45:34;3.27;;;2.07;;
11121;SDS011;5615;49.304;10.576;2023-02-26T09:48:04;3.03;;;2.10;;
11121;SDS011;5615;49.304;10.576;2023-02-26T09:50:35;2.43;;;2.00;;
11121;SDS011;5615;49.304;10.576;2023-02-26T09:53:06;2.20;;;2.00;;
11121;SDS011;5615;49.304;10.576;2023-02-26T09:55:40;2.60;;;2.10;;
11121;SDS011;5615;49.304;10.576;2023-02-26T09:58:10;2.90;;;1.90;;
11121;SDS011;5615;49.304;10.576;2023-02-26T10:00:43;2.13;;;1.83;;
11121;SDS011;5615;49.304;10.576;2023-02-26T10:03:19;2.17;;;1.97;;
11121;SDS011;5615;49.304;10.576;2023-02-26T10:05:59;2.83;;;2.20;;
11121;SDS011;5615;49.304;10.576;2023-02-26T10:08:40;3.17;;;2.60;;
11121;SDS011;5615;49.304;10.576;2023-02-26T10:11:21;2.03;;;1.83;;
11121;SDS011;5615;49.304;10.576;2023-02-26T10:13:52;2.00;;;1.80;;
11121;SDS011;5615;49.304;10.576;2023-02-26T10:16:25;2.70;;;1.93;;
11121;SDS011;5615;49.304;10.576;2023-02-26T10:18:54;2.47;;;1.73;;
11121;SDS011;5615;49.304;10.576;2023-02-26T10:21:27;1.70;;;1.60;;
11121;SDS011;5615;49.304;10.576;2023-02-26T10:23:59;2.00;;;1.70;;
11121;SDS011;5615;49.304;10.576;2023-02-26T10:26:30;2.67;;;1.90;;
11121;SDS011;5615;49.304;10.576;2023-02-26T10:29:04;2.30;;;1.80;;
11121;SDS011;5615;49.304;10.576;2023-02-26T10:31:43;2.00;;;1.80;;
11121;SDS011;5615;49.304;10.576;2023-02-26T10:34:28;1.80;;;1.53;;
11121;SDS011;5615;49.304;10.576;2023-02-26T10:37:02;1.60;;;1.47;;
11121;SDS011;5615;49.304;10.576;2023-02-26T10:39:34;4.40;;;1.80;;
11121;SDS011;5615;49.304;10.576;2023-02-26T10:42:09;2.10;;;1.50;;
11121;SDS011;5615;49.304;10.576;2023-02-26T10:44:40;1.70;;;1.57;;
11121;SDS011;5615;49.304;10.576;2023-02-26T10:47:15;2.00;;;1.70;;
11121;SDS011;5615;49.304;10.576;2023-02-26T10:49:52;1.87;;;1.67;;
11121;SDS011;5615;49.304;10.576;2023-02-26T10:52:21;2.70;;;2.20;;
11121;SDS011;5615;49.304;10.576;2023-02-26T10:58:03;2.00;;;1.80;;
11121;SDS011;5615;49.304;10.576;2023-02-26T11:00:32;1.93;;;1.73;;
11121;SDS011;5615;49.304;10.576;2023-02-26T11:03:01;2.00;;;1.80;;
11121;SDS011;5615;49.304;10.576;2023-02-26T11:05:31;2.20;;;1.50;;
11121;SDS011;5615;49.304;10.576;2023-02-26T11:08:00;2.13;;;1.70;;
11121;SDS011;5615;49.304;10.576;2023-02-26T11:10:30;3.03;;;1.83;;
11121;SDS011;5615;49.304;10.576;2023-02-26T11:13:04;2.40;;;1.97;;
11121;SDS011;5615;49.304;10.576;2023-02-26T11:15:31;2.27;;;1.77;;
11121;SDS011;5615;49.304;10.576;2023-02-26T11:17:58;2.13;;;1.70;;
11121;SDS011;5615;49.304;10.576;2023-02-26T11:20:32;3.23;;;2.47;;
11121;SDS011;5615;49.304;10.576;2023-02-26T11:23:03;2.00;;;1.53;;
11121;SDS011;5615;49.304;10.576;2023-02-26T11:25:41;2.37;;;2.00;;
11121;SDS011;5615;49.304;10.576;2023-02-26T11:28:17;2.07;;;1.77;;
11121;SDS011;5615;49.304;10.576;2023-02-26T11:30:47;3.00;;;2.30;;
11121;SDS011;5615;49.304;10.576;2023-02-26T11:33:20;1.77;;;1.43;;
11121;SDS011;5615;49.304;10.576;2023-02-26T11:35:57;2.40;;;1.60;;
11121;SDS011;5615;49.304;10.576;2023-02-26T11:38:27;2.23;;;1.50;;
11121;SDS011;5615;49.304;10.576;2023-02-26T11:40:56;1.77;;;1.43;;
11121;SDS011;5615;49.304;10.576;2023-02-26T11:43:26;4.27;;;2.10;;
11121;SDS011;5615;49.304;10.576;2023-02-26T11:46:01;1.80;;;1.70;;
11121;SDS011;5615;49.304;10.576;2023-02-26T11:48:32;3.20;;;2.07;;
11121;SDS011;5615;49.304;10.576;2023-02-26T11:51:05;2.80;;;2.20;;
11121;SDS011;5615;49.304;10.576;2023-02-26T11:53:34;2.37;;;2.00;;
11121;SDS011;5615;49.304;10.576;2023-02-26T11:56:03;2.60;;;2.00;;
11121;SDS011;5615;49.304;10.576;2023-02-26T11:58:36;2.03;;;1.70;;
11121;SDS011;5615;49.304;10.576;2023-02-26T12:01:05;4.17;;;1.37;;
11121;SDS011;5615;49.304;10.576;2023-02-26T12:03:33;1.70;;;1.47;;
11121;SDS011;5615;49.304;10.576;2023-02-26T12:06:05;2.40;;;1.30;;
11121;SDS011;5615;49.304;10.576;2023-02-26T12:08:37;1.40;;;1.20;;
11121;SDS011;5615;49.304;10.576;2023-02-26T12:14:20;1.40;;;1.30;;
11121;SDS011;5615;49.304;10.576;2023-02-26T12:16:59;1.90;;;1.63;;
11121;SDS011;5615;49.304;10.576;2023-02-26T12:19:39;1.53;;;1.20;;
11121;SDS011;5615;49.304;10.576;2023-02-26T12:22:16;3.90;;;2.30;;
11121;SDS011;5615;49.304;10.576;2023-02-26T12:24:59;1.60;;;1.40;;
11121;SDS011;5615;49.304;10.576;2023-02-26T12:27:54;2.03;;;1.60;;
11121;SDS011;5615;49.304;10.576;2023-02-26T12:30:40;1.40;;;1.30;;
11121;SDS011;5615;49.304;10.576;2023-02-26T12:33:27;2.30;;;1.40;;
11121;SDS011;5615;49.304;10.576;2023-02-26T12:36:04;2.40;;;1.90;;
11121;SDS011;5615;49.304;10.576;2023-02-26T12:38:49;1.77;;;1.50;;
11121;SDS011;5615;49.304;10.576;2023-02-26T12:41:28;1.43;;;1.23;;
11121;SDS011;5615;49.304;10.576;2023-02-26T12:44:06;1.37;;;1.27;;
11121;SDS011;5615;49.304;10.576;2023-02-26T12:46:48;2.37;;;1.47;;
11121;SDS011;5615;49.304;10.576;2023-02-26T12:49:30;2.10;;;1.80;;
11121;SDS011;5615;49.304;10.576;2023-02-26T12:52:11;1.30;;;1.20;;
11121;SDS011;5615;49.304;10.576;2023-02-26T12:54:54;1.50;;;1.30;;
11121;SDS011;5615;49.304;10.576;2023-02-26T12:57:46;1.30;;;1.20;;
11121;SDS011;5615;49.304;10.576;2023-02-26T13:00:36;2.53;;;1.30;;
11121;SDS011;5615;49.304;10.576;2023-02-26T13:06:39;1.00;;;0.90;;
11121;SDS011;5615;49.304;10.576;2023-02-26T13:09:22;1.30;;;1.20;;
11121;SDS011;5615;49.304;10.576;2023-02-26T13:12:01;1.23;;;1.13;;
11121;SDS011;5615;49.304;10.576;2023-02-26T13:14:42;1.10;;;0.97;;
11121;SDS011;5615;49.304;10.576;2023-02-26T13:17:19;1.40;;;1.30;;
11121;SDS011;5615;49.304;10.576;2023-02-26T13:19:51;1.33;;;1.23;;
11121;SDS011;5615;49.304;10.576;2023-02-26T13:22:21;2.13;;;1.40;;
11121;SDS011;5615;49.304;10.576;2023-02-26T13:24:53;1.77;;;1.47;;
11121;SDS011;5615;49.304;10.576;2023-02-26T13:27:24;1.73;;;1.33;;
11121;SDS011;5615;49.304;10.576;2023-02-26T13:29:59;1.63;;;1.10;;
11121;SDS011;5615;49.304;10.576;2023-02-26T13:32:44;3.60;;;1.03;;
11121;SDS011;5615;49.304;10.576;2023-02-26T13:35:16;2.37;;;1.60;;
11121;SDS011;5615;49.304;10.576;2023-02-26T13:37:46;1.40;;;1.30;;
11121;SDS011;5615;49.304;10.576;2023-02-26T13:40:23;2.33;;;1.60;;
11121;SDS011;5615;49.304;10.576;2023-02-26T13:43:04;1.83;;;1.50;;
11121;SDS011;5615;49.304;10.576;2023-02-26T13:45:38;1.37;;;1.23;;
11121;SDS011;5615;49.304;10.576;2023-02-26T13:48:16;1.70;;;1.10;;
11121;SDS011;5615;49.304;10.576;2023-02-26T13:50:54;1.63;;;1.30;;
11121;SDS011;5615;49.304;10.576;2023-02-26T13:56:20;1.63;;;1.17;;
11121;SDS011;5615;49.304;10.576;2023-02-26T13:59:24;2.10;;;1.40;;
11121;SDS011;5615;49.304;10.576;2023-02-26T14:05:05;2.42;;;1.10;;
11121;SDS011;5615;49.304;10.576;2023-02-26T14:07:53;2.05;;;1.13;;
11121;SDS011;5615;49.304;10.576;2023-02-26T14:10:36;1.40;;;1.30;;
11121;SDS011;5615;49.304;10.576;2023-02-26T14:13:11;1.63;;;1.10;;
11121;SDS011;5615;49.304;10.576;2023-02-26T14:15:47;2.35;;;1.30;;
11121;SDS011;5615;49.304;10.576;2023-02-26T14:18:19;1.40;;;1.17;;
11121;SDS011;5615;49.304;10.576;2023-02-26T14:24:04;1.30;;;1.10;;
11121;SDS011;5615;49.304;10.576;2023-02-26T14:26:38;1.73;;;1.20;;
11121;SDS011;5615;49.304;10.576;2023-02-26T14:29:13;1.27;;;1.00;;
11121;SDS011;5615;49.304;10.576;2023-02-26T14:31:53;1.30;;;1.02;;
11121;SDS011;5615;49.304;10.576;2023-02-26T14:34:39;1.05;;;0.98;;
11121;SDS011;5615;49.304;10.576;2023-02-26T14:37:14;1.85;;;1.20;;
11121;SDS011;5615;49.304;10.576;2023-02-26T14:39:46;1.33;;;1.20;;
11121;SDS011;5615;49.304;10.576;2023-02-26T14:42:17;1.58;;;1.20;;
11121;SDS011;5615;49.304;10.576;2023-02-26T14:44:47;1.27;;;1.13;;
11121;SDS011;5615;49.304;10.576;2023-02-26T14:47:18;1.30;;;1.20;;
11121;SDS011;5615;49.304;10.576;2023-02-26T14:49:45;1.30;;;1.20;;
11121;SDS011;5615;49.304;10.576;2023-02-26T14:52:38;1.45;;;1.35;;
11121;SDS011;5615;49.304;10.576;2023-02-26T14:55:17;2.17;;;1.50;;
11121;SDS011;5615;49.304;10.576;2023-02-26T14:58:05;2.20;;;1.42;;
11121;SDS011;5615;49.304;10.576;2023-02-26T15:00:46;1.63;;;1.52;;
11121;SDS011;5615;49.304;10.576;2023-02-26T15:03:31;1.70;;;1.50;;
11121;SDS011;5615;49.304;10.576;2023-02-26T15:06:15;1.50;;;1.10;;
11121;SDS011;5615;49.304;10.576;2023-02-26T15:09:05;1.73;;;1.23;;
11121;SDS011;5615;49.304;10.576;2023-02-26T15:11:44;2.57;;;1.63;;
11121;SDS011;5615;49.304;10.576;2023-02-26T15:14:22;2.63;;;1.50;;
11121;SDS011;5615;49.304;10.576;2023-02-26T15:17:10;1.93;;;1.60;;
11121;SDS011;5615;49.304;10.576;2023-02-26T15:19:53;1.93;;;1.40;;
11121;SDS011;5615;49.304;10.576;2023-02-26T15:22:32;3.10;;;1.80;;
11121;SDS011;5615;49.304;10.576;2023-02-26T15:25:13;1.80;;;1.30;;
11121;SDS011;5615;49.304;10.576;2023-02-26T15:27:44;2.13;;;1.45;;
11121;SDS011;5615;49.304;10.576;2023-02-26T15:30:11;1.42;;;1.33;;
11121;SDS011;5615;49.304;10.576;2023-02-26T15:32:40;2.00;;;1.60;;